sensor_id;sensor_type;location;lat;lon;timestamp;temperature;humidity
30865;DHT22;17574;49.418;11.038;2023-04-01T00:01:44;9.60;67.70
30865;DHT22;17574;49.418;11.038;2023-04-01T00:04:11;9.60;68.30
30865;DHT22;17574;49.418;11.038;2023-04-01T00:06:38;9.70;69.20
30865;DHT22;17574;49.418;11.038;2023-04-01T00:09:04;9.60;69.00
30865;DHT22;17574;49.418;11.038;2023-04-01T00:11:31;9.60;68.20
30865;DHT22;17574;49.418;11.038;2023-04-01T00:13:58;9.60;67.80
30865;DHT22;17574;49.418;11.038;2023-04-01T00:16:25;9.70;66.00
30865;DHT22;17574;49.418;11.038;2023-04-01T00:18:51;9.70;64.30
30865;DHT22;17574;49.418;11.038;2023-04-01T00:21:18;9.70;64.80
30865;DHT22;17574;49.418;11.038;2023-04-01T00:23:46;9.80;62.90
30865;DHT22;17574;49.418;11.038;2023-04-01T00:26:13;9.80;60.90
30865;DHT22;17574;49.418;11.038;2023-04-01T00:28:40;9.80;60.90
30865;DHT22;17574;49.418;11.038;2023-04-01T00:31:08;9.80;60.90
30865;DHT22;17574;49.418;11.038;2023-04-01T00:33:35;9.80;60.90
30865;DHT22;17574;49.418;11.038;2023-04-01T00:38:35;9.80;60.90
30865;DHT22;17574;49.418;11.038;2023-04-01T00:41:01;9.90;60.90
30865;DHT22;17574;49.418;11.038;2023-04-01T00:43:28;9.90;59.50
30865;DHT22;17574;49.418;11.038;2023-04-01T00:45:54;9.90;58.80
30865;DHT22;17574;49.418;11.038;2023-04-01T00:48:28;9.90;59.70
30865;DHT22;17574;49.418;11.038;2023-04-01T00:53:43;9.90;56.70
30865;DHT22;17574;49.418;11.038;2023-04-01T00:56:12;9.90;56.90
30865;DHT22;17574;49.418;11.038;2023-04-01T00:58:42;9.90;56.80
30865;DHT22;17574;49.418;11.038;2023-04-01T01:01:10;9.90;57.00
30865;DHT22;17574;49.418;11.038;2023-04-01T01:03:36;9.90;54.80
30865;DHT22;17574;49.418;11.038;2023-04-01T01:06:07;9.90;56.00
30865;DHT22;17574;49.418;11.038;2023-04-01T01:08:39;9.90;55.70
30865;DHT22;17574;49.418;11.038;2023-04-01T01:11:08;9.90;54.50
30865;DHT22;17574;49.418;11.038;2023-04-01T01:16:14;9.90;54.30
30865;DHT22;17574;49.418;11.038;2023-04-01T01:18:47;9.90;54.50
30865;DHT22;17574;49.418;11.038;2023-04-01T01:26:51;9.90;52.60
30865;DHT22;17574;49.418;11.038;2023-04-01T01:34:33;9.90;50.70
30865;DHT22;17574;49.418;11.038;2023-04-01T01:37:04;9.90;50.70
30865;DHT22;17574;49.418;11.038;2023-04-01T01:39:33;9.90;51.30
30865;DHT22;17574;49.418;11.038;2023-04-01T01:42:01;10.00;49.70
30865;DHT22;17574;49.418;11.038;2023-04-01T01:44:29;10.00;49.70
30865;DHT22;17574;49.418;11.038;2023-04-01T01:46:57;10.00;49.80
30865;DHT22;17574;49.418;11.038;2023-04-01T01:49:24;10.00;49.70
30865;DHT22;17574;49.418;11.038;2023-04-01T01:51:51;10.00;49.70
30865;DHT22;17574;49.418;11.038;2023-04-01T01:54:17;10.00;49.70
30865;DHT22;17574;49.418;11.038;2023-04-01T01:56:44;10.00;49.60
30865;DHT22;17574;49.418;11.038;2023-04-01T01:59:13;10.00;49.10
30865;DHT22;17574;49.418;11.038;2023-04-01T02:01:42;10.00;48.50
30865;DHT22;17574;49.418;11.038;2023-04-01T02:04:09;10.00;47.90
30865;DHT22;17574;49.418;11.038;2023-04-01T02:06:37;10.00;46.00
30865;DHT22;17574;49.418;11.038;2023-04-01T02:09:05;10.00;45.70
30865;DHT22;17574;49.418;11.038;2023-04-01T02:11:49;10.00;46.30
30865;DHT22;17574;49.418;11.038;2023-04-01T02:14:18;10.00;46.70
30865;DHT22;17574;49.418;11.038;2023-04-01T02:16:50;10.00;46.20
30865;DHT22;17574;49.418;11.038;2023-04-01T02:19:18;10.00;46.20
30865;DHT22;17574;49.418;11.038;2023-04-01T02:21:50;10.00;46.00
30865;DHT22;17574;49.418;11.038;2023-04-01T02:24:18;9.90;47.30
30865;DHT22;17574;49.418;11.038;2023-04-01T02:26:48;9.90;47.60
30865;DHT22;17574;49.418;11.038;2023-04-01T02:29:16;9.90;48.10
30865;DHT22;17574;49.418;11.038;2023-04-01T02:31:44;10.00;45.90
30865;DHT22;17574;49.418;11.038;2023-04-01T02:34:10;9.90;46.70
30865;DHT22;17574;49.418;11.038;2023-04-01T02:36:38;9.90;46.90
30865;DHT22;17574;49.418;11.038;2023-04-01T02:39:04;9.90;45.60
30865;DHT22;17574;49.418;11.038;2023-04-01T02:41:31;10.00;44.60
30865;DHT22;17574;49.418;11.038;2023-04-01T02:43:58;10.00;43.30
30865;DHT22;17574;49.418;11.038;2023-04-01T02:46:25;9.90;45.20
30865;DHT22;17574;49.418;11.038;2023-04-01T02:48:51;10.00;43.50
30865;DHT22;17574;49.418;11.038;2023-04-01T02:51:18;9.90;45.80
30865;DHT22;17574;49.418;11.038;2023-04-01T02:53:45;9.90;45.30
30865;DHT22;17574;49.418;11.038;2023-04-01T02:56:11;9.90;46.30
30865;DHT22;17574;49.418;11.038;2023-04-01T02:58:38;9.90;46.50
30865;DHT22;17574;49.418;11.038;2023-04-01T03:01:05;9.90;48.30
30865;DHT22;17574;49.418;11.038;2023-04-01T03:03:32;9.80;46.30
30865;DHT22;17574;49.418;11.038;2023-04-01T03:06:04;9.80;47.20
30865;DHT22;17574;49.418;11.038;2023-04-01T03:08:31;9.80;47.60
30865;DHT22;17574;49.418;11.038;2023-04-01T03:10:57;9.80;49.00
30865;DHT22;17574;49.418;11.038;2023-04-01T03:13:26;9.80;48.90
30865;DHT22;17574;49.418;11.038;2023-04-01T03:15:52;9.80;47.50
30865;DHT22;17574;49.418;11.038;2023-04-01T03:18:19;9.80;46.60
30865;DHT22;17574;49.418;11.038;2023-04-01T03:20:46;9.80;46.80
30865;DHT22;17574;49.418;11.038;2023-04-01T03:23:13;9.80;47.70
30865;DHT22;17574;49.418;11.038;2023-04-01T03:25:39;9.80;47.90
30865;DHT22;17574;49.418;11.038;2023-04-01T03:28:06;9.90;48.50
30865;DHT22;17574;49.418;11.038;2023-04-01T03:30:33;9.80;47.70
30865;DHT22;17574;49.418;11.038;2023-04-01T03:33:00;9.80;47.50
30865;DHT22;17574;49.418;11.038;2023-04-01T03:35:27;9.80;47.00
30865;DHT22;17574;49.418;11.038;2023-04-01T03:37:54;9.80;47.90
30865;DHT22;17574;49.418;11.038;2023-04-01T03:40:21;9.80;47.50
30865;DHT22;17574;49.418;11.038;2023-04-01T03:42:48;9.90;48.20
30865;DHT22;17574;49.418;11.038;2023-04-01T03:45:14;9.80;48.40
30865;DHT22;17574;49.418;11.038;2023-04-01T03:47:41;9.80;48.30
30865;DHT22;17574;49.418;11.038;2023-04-01T03:50:08;9.80;49.00
30865;DHT22;17574;49.418;11.038;2023-04-01T03:52:36;9.80;49.10
30865;DHT22;17574;49.418;11.038;2023-04-01T03:55:02;9.80;49.70
30865;DHT22;17574;49.418;11.038;2023-04-01T03:57:30;9.80;48.00
30865;DHT22;17574;49.418;11.038;2023-04-01T03:59:57;9.80;47.20
30865;DHT22;17574;49.418;11.038;2023-04-01T04:02:24;9.80;47.00
30865;DHT22;17574;49.418;11.038;2023-04-01T04:04:51;9.80;44.00
30865;DHT22;17574;49.418;11.038;2023-04-01T04:07:17;9.90;43.70
30865;DHT22;17574;49.418;11.038;2023-04-01T04:09:44;9.80;42.50
30865;DHT22;17574;49.418;11.038;2023-04-01T04:12:10;9.80;44.20
30865;DHT22;17574;49.418;11.038;2023-04-01T04:14:37;9.80;45.20
30865;DHT22;17574;49.418;11.038;2023-04-01T04:17:04;9.80;44.20
30865;DHT22;17574;49.418;11.038;2023-04-01T04:19:33;9.80;42.50
30865;DHT22;17574;49.418;11.038;2023-04-01T04:22:00;9.80;41.10
30865;DHT22;17574;49.418;11.038;2023-04-01T04:24:27;9.80;41.80
30865;DHT22;17574;49.418;11.038;2023-04-01T04:26:54;9.70;43.20
30865;DHT22;17574;49.418;11.038;2023-04-01T04:29:21;9.80;43.80
30865;DHT22;17574;49.418;11.038;2023-04-01T04:31:49;9.80;42.70
30865;DHT22;17574;49.418;11.038;2023-04-01T04:34:16;9.80;43.30
30865;DHT22;17574;49.418;11.038;2023-04-01T04:36:42;9.80;43.10
30865;DHT22;17574;49.418;11.038;2023-04-01T04:39:09;9.80;43.90
30865;DHT22;17574;49.418;11.038;2023-04-01T04:41:36;9.80;45.20
30865;DHT22;17574;49.418;11.038;2023-04-01T04:44:03;9.80;45.60
30865;DHT22;17574;49.418;11.038;2023-04-01T04:46:31;9.80;47.20
30865;DHT22;17574;49.418;11.038;2023-04-01T04:48:58;9.70;47.80
30865;DHT22;17574;49.418;11.038;2023-04-01T04:51:24;9.80;48.00
30865;DHT22;17574;49.418;11.038;2023-04-01T04:53:51;9.80;48.10
30865;DHT22;17574;49.418;11.038;2023-04-01T04:56:19;9.80;51.20
30865;DHT22;17574;49.418;11.038;2023-04-01T04:58:46;9.80;50.60
30865;DHT22;17574;49.418;11.038;2023-04-01T05:01:13;9.70;50.50
30865;DHT22;17574;49.418;11.038;2023-04-01T05:03:40;9.70;51.40
30865;DHT22;17574;49.418;11.038;2023-04-01T05:06:08;9.70;50.50
30865;DHT22;17574;49.418;11.038;2023-04-01T05:08:35;9.70;52.10
30865;DHT22;17574;49.418;11.038;2023-04-01T05:11:02;9.70;52.60
30865;DHT22;17574;49.418;11.038;2023-04-01T05:13:29;9.70;52.70
30865;DHT22;17574;49.418;11.038;2023-04-01T05:15:55;9.70;52.10
30865;DHT22;17574;49.418;11.038;2023-04-01T05:18:22;9.70;50.60
30865;DHT22;17574;49.418;11.038;2023-04-01T05:20:50;9.70;50.50
30865;DHT22;17574;49.418;11.038;2023-04-01T05:23:17;9.70;50.50
30865;DHT22;17574;49.418;11.038;2023-04-01T05:25:44;9.70;50.50
30865;DHT22;17574;49.418;11.038;2023-04-01T05:28:11;9.70;50.50
30865;DHT22;17574;49.418;11.038;2023-04-01T05:30:42;9.70;51.10
30865;DHT22;17574;49.418;11.038;2023-04-01T05:33:09;9.80;50.60
30865;DHT22;17574;49.418;11.038;2023-04-01T05:35:36;9.80;48.50
30865;DHT22;17574;49.418;11.038;2023-04-01T05:38:03;9.80;48.70
30865;DHT22;17574;49.418;11.038;2023-04-01T05:40:30;9.90;49.30
30865;DHT22;17574;49.418;11.038;2023-04-01T05:42:57;9.90;46.90
30865;DHT22;17574;49.418;11.038;2023-04-01T05:45:24;9.90;46.50
30865;DHT22;17574;49.418;11.038;2023-04-01T05:47:51;9.90;46.50
30865;DHT22;17574;49.418;11.038;2023-04-01T05:50:17;9.90;45.90
30865;DHT22;17574;49.418;11.038;2023-04-01T05:52:44;10.00;44.40
30865;DHT22;17574;49.418;11.038;2023-04-01T05:55:11;10.00;42.50
30865;DHT22;17574;49.418;11.038;2023-04-01T05:57:37;10.00;42.40
30865;DHT22;17574;49.418;11.038;2023-04-01T06:00:04;10.10;42.90
30865;DHT22;17574;49.418;11.038;2023-04-01T06:02:31;10.10;42.40
30865;DHT22;17574;49.418;11.038;2023-04-01T06:05:02;10.20;41.80
30865;DHT22;17574;49.418;11.038;2023-04-01T06:07:30;10.20;41.00
30865;DHT22;17574;49.418;11.038;2023-04-01T06:09:56;10.30;39.10
30865;DHT22;17574;49.418;11.038;2023-04-01T06:20:08;10.40;39.30
30865;DHT22;17574;49.418;11.038;2023-04-01T06:32:44;10.60;31.00
30865;DHT22;17574;49.418;11.038;2023-04-01T06:35:22;10.70;29.60
30865;DHT22;17574;49.418;11.038;2023-04-01T06:43:10;11.00;27.60
30865;DHT22;17574;49.418;11.038;2023-04-01T06:45:52;11.10;27.00
30865;DHT22;17574;49.418;11.038;2023-04-01T06:53:48;11.30;23.30
30865;DHT22;17574;49.418;11.038;2023-04-01T06:56:20;11.50;21.00
30865;DHT22;17574;49.418;11.038;2023-04-01T06:58:50;11.60;20.40
30865;DHT22;17574;49.418;11.038;2023-04-01T07:01:40;11.70;19.70
30865;DHT22;17574;49.418;11.038;2023-04-01T07:04:14;11.80;17.10
30865;DHT22;17574;49.418;11.038;2023-04-01T07:06:46;13.70;28.10
30865;DHT22;17574;49.418;11.038;2023-04-01T07:09:18;14.70;5.80
30865;DHT22;17574;49.418;11.038;2023-04-01T07:11:45;14.40;1.00
30865;DHT22;17574;49.418;11.038;2023-04-01T07:16:48;13.50;2.70
30865;DHT22;17574;49.418;11.038;2023-04-01T07:21:47;13.10;2.40
30865;DHT22;17574;49.418;11.038;2023-04-01T07:24:48;13.00;4.40
30865;DHT22;17574;49.418;11.038;2023-04-01T07:27:12;13.10;6.40
30865;DHT22;17574;49.418;11.038;2023-04-01T07:29:39;13.00;4.10
30865;DHT22;17574;49.418;11.038;2023-04-01T07:40:16;13.50;1.00
30865;DHT22;17574;49.418;11.038;2023-04-01T07:45:23;13.30;2.60
30865;DHT22;17574;49.418;11.038;2023-04-01T07:50:45;13.20;2.50
30865;DHT22;17574;49.418;11.038;2023-04-01T07:53:18;13.10;2.50
30865;DHT22;17574;49.418;11.038;2023-04-01T07:55:55;13.10;2.50
30865;DHT22;17574;49.418;11.038;2023-04-01T07:58:43;13.10;2.40
30865;DHT22;17574;49.418;11.038;2023-04-01T08:06:32;13.30;2.60
30865;DHT22;17574;49.418;11.038;2023-04-01T08:17:02;13.50;1.00
30865;DHT22;17574;49.418;11.038;2023-04-01T08:19:43;13.40;1.00
30865;DHT22;17574;49.418;11.038;2023-04-01T08:22:15;13.30;1.00
30865;DHT22;17574;49.418;11.038;2023-04-01T08:24:44;13.30;1.00
30865;DHT22;17574;49.418;11.038;2023-04-01T08:27:37;13.40;1.00
30865;DHT22;17574;49.418;11.038;2023-04-01T08:32:47;13.50;1.00
30865;DHT22;17574;49.418;11.038;2023-04-01T08:37:44;13.60;1.00
30865;DHT22;17574;49.418;11.038;2023-04-01T08:40:25;13.60;1.00
30865;DHT22;17574;49.418;11.038;2023-04-01T08:43:00;13.80;1.00
30865;DHT22;17574;49.418;11.038;2023-04-01T08:45:55;13.90;1.00
30865;DHT22;17574;49.418;11.038;2023-04-01T08:48:33;14.10;1.00
30865;DHT22;17574;49.418;11.038;2023-04-01T08:53:46;14.00;1.00
30865;DHT22;17574;49.418;11.038;2023-04-01T09:09:18;14.20;1.00
30865;DHT22;17574;49.418;11.038;2023-04-01T09:17:51;14.30;1.00
30865;DHT22;17574;49.418;11.038;2023-04-01T09:20:42;14.30;1.00
30865;DHT22;17574;49.418;11.038;2023-04-01T09:23:19;14.20;1.00
30865;DHT22;17574;49.418;11.038;2023-04-01T09:28:45;14.10;1.00
30865;DHT22;17574;49.418;11.038;2023-04-01T09:39:15;14.00;1.00
30865;DHT22;17574;49.418;11.038;2023-04-01T09:44:48;13.90;1.00
30865;DHT22;17574;49.418;11.038;2023-04-01T09:50:13;14.20;1.00
30865;DHT22;17574;49.418;11.038;2023-04-01T09:52:45;14.10;1.00
30865;DHT22;17574;49.418;11.038;2023-04-01T09:55:42;14.00;1.00
30865;DHT22;17574;49.418;11.038;2023-04-01T10:01:31;13.90;1.00
30865;DHT22;17574;49.418;11.038;2023-04-01T10:04:23;13.90;1.00
30865;DHT22;17574;49.418;11.038;2023-04-01T10:06:58;13.70;1.00
30865;DHT22;17574;49.418;11.038;2023-04-01T10:33:53;13.40;23.60
30865;DHT22;17574;49.418;11.038;2023-04-01T10:36:29;13.60;22.80
30865;DHT22;17574;49.418;11.038;2023-04-01T10:41:57;13.60;25.90
30865;DHT22;17574;49.418;11.038;2023-04-01T10:44:50;13.60;24.80
30865;DHT22;17574;49.418;11.038;2023-04-01T10:55:04;13.30;33.00
30865;DHT22;17574;49.418;11.038;2023-04-01T10:58:02;13.00;30.90
30865;DHT22;17574;49.418;11.038;2023-04-01T11:00:47;13.00;35.60
30865;DHT22;17574;49.418;11.038;2023-04-01T11:03:41;12.90;37.50
30865;DHT22;17574;49.418;11.038;2023-04-01T11:19:46;12.60;41.40
30865;DHT22;17574;49.418;11.038;2023-04-01T11:32:53;12.50;39.30
30865;DHT22;17574;49.418;11.038;2023-04-01T11:38:15;12.50;44.40
30865;DHT22;17574;49.418;11.038;2023-04-01T11:46:00;12.50;41.30
30865;DHT22;17574;49.418;11.038;2023-04-01T11:48:32;12.50;36.60
30865;DHT22;17574;49.418;11.038;2023-04-01T11:53:38;12.60;36.50
30865;DHT22;17574;49.418;11.038;2023-04-01T11:56:18;12.70;35.90
30865;DHT22;17574;49.418;11.038;2023-04-01T12:09:12;12.60;41.40
30865;DHT22;17574;49.418;11.038;2023-04-01T12:17:19;12.90;38.40
30865;DHT22;17574;49.418;11.038;2023-04-01T12:22:29;13.40;32.70
30865;DHT22;17574;49.418;11.038;2023-04-01T12:33:04;13.60;26.00
30865;DHT22;17574;49.418;11.038;2023-04-01T12:35:43;13.30;26.30
30865;DHT22;17574;49.418;11.038;2023-04-01T12:38:19;13.10;30.60
30865;DHT22;17574;49.418;11.038;2023-04-01T12:41:03;13.20;30.70
30865;DHT22;17574;49.418;11.038;2023-04-01T12:43:48;13.10;31.20
30865;DHT22;17574;49.418;11.038;2023-04-01T12:48:51;12.90;36.20
30865;DHT22;17574;49.418;11.038;2023-04-01T12:51:32;12.90;36.10
30865;DHT22;17574;49.418;11.038;2023-04-01T12:59:30;12.90;30.50
30865;DHT22;17574;49.418;11.038;2023-04-01T13:13:00;13.10;31.00
30865;DHT22;17574;49.418;11.038;2023-04-01T13:15:34;13.20;28.30
30865;DHT22;17574;49.418;11.038;2023-04-01T13:18:11;13.10;28.30
30865;DHT22;17574;49.418;11.038;2023-04-01T13:23:37;13.10;28.40
30865;DHT22;17574;49.418;11.038;2023-04-01T13:28:59;13.10;25.00
30865;DHT22;17574;49.418;11.038;2023-04-01T13:34:05;13.10;26.40
30865;DHT22;17574;49.418;11.038;2023-04-01T13:36:37;13.20;26.20
30865;DHT22;17574;49.418;11.038;2023-04-01T13:44:51;13.50;21.90
30865;DHT22;17574;49.418;11.038;2023-04-01T13:50:16;13.70;22.00
30865;DHT22;17574;49.418;11.038;2023-04-01T13:52:53;13.80;19.60
30865;DHT22;17574;49.418;11.038;2023-04-01T14:00:42;13.60;20.80
30865;DHT22;17574;49.418;11.038;2023-04-01T14:11:19;14.00;14.30
30865;DHT22;17574;49.418;11.038;2023-04-01T14:21:47;14.40;20.60
30865;DHT22;17574;49.418;11.038;2023-04-01T14:24:22;14.60;7.90
30865;DHT22;17574;49.418;11.038;2023-04-01T14:32:12;13.50;14.80
30865;DHT22;17574;49.418;11.038;2023-04-01T14:34:53;13.20;16.40
30865;DHT22;17574;49.418;11.038;2023-04-01T14:37:47;13.00;21.50
30865;DHT22;17574;49.418;11.038;2023-04-01T14:40:37;12.90;21.40
30865;DHT22;17574;49.418;11.038;2023-04-01T14:51:02;12.70;22.00
30865;DHT22;17574;49.418;11.038;2023-04-01T14:53:31;12.50;22.40
30865;DHT22;17574;49.418;11.038;2023-04-01T14:56:01;12.40;21.90
30865;DHT22;17574;49.418;11.038;2023-04-01T14:58:43;12.30;25.50
30865;DHT22;17574;49.418;11.038;2023-04-01T15:01:17;12.40;26.70
30865;DHT22;17574;49.418;11.038;2023-04-01T15:03:50;12.30;28.30
30865;DHT22;17574;49.418;11.038;2023-04-01T15:09:08;12.20;27.10
30865;DHT22;17574;49.418;11.038;2023-04-01T15:22:46;12.50;27.10
30865;DHT22;17574;49.418;11.038;2023-04-01T15:25:29;12.60;26.40
30865;DHT22;17574;49.418;11.038;2023-04-01T15:30:33;12.60;24.60
30865;DHT22;17574;49.418;11.038;2023-04-01T15:33:09;12.60;23.60
30865;DHT22;17574;49.418;11.038;2023-04-01T15:35:51;12.60;25.50
30865;DHT22;17574;49.418;11.038;2023-04-01T15:38:34;12.60;25.70
30865;DHT22;17574;49.418;11.038;2023-04-01T15:43:50;12.50;26.50
30865;DHT22;17574;49.418;11.038;2023-04-01T15:51:30;12.40;25.60
30865;DHT22;17574;49.418;11.038;2023-04-01T15:54:52;12.40;25.60
30865;DHT22;17574;49.418;11.038;2023-04-01T16:13:55;12.10;24.60
30865;DHT22;17574;49.418;11.038;2023-04-01T16:21:48;12.00;25.30
30865;DHT22;17574;49.418;11.038;2023-04-01T16:27:05;11.90;25.60
30865;DHT22;17574;49.418;11.038;2023-04-01T16:29:43;11.90;25.90
30865;DHT22;17574;49.418;11.038;2023-04-01T16:34:56;11.80;27.60
30865;DHT22;17574;49.418;11.038;2023-04-01T16:37:29;11.80;28.30
30865;DHT22;17574;49.418;11.038;2023-04-01T16:40:02;11.70;29.50
30865;DHT22;17574;49.418;11.038;2023-04-01T16:42:56;11.70;29.50
30865;DHT22;17574;49.418;11.038;2023-04-01T16:45:42;11.70;29.50
30865;DHT22;17574;49.418;11.038;2023-04-01T16:48:14;11.60;30.10
30865;DHT22;17574;49.418;11.038;2023-04-01T16:53:25;11.60;31.50
30865;DHT22;17574;49.418;11.038;2023-04-01T16:56:03;11.50;32.10
30865;DHT22;17574;49.418;11.038;2023-04-01T16:58:39;11.50;33.20
30865;DHT22;17574;49.418;11.038;2023-04-01T17:01:16;11.50;33.80
30865;DHT22;17574;49.418;11.038;2023-04-01T17:03:45;11.50;32.40
30865;DHT22;17574;49.418;11.038;2023-04-01T17:11:19;11.30;38.50
30865;DHT22;17574;49.418;11.038;2023-04-01T17:13:56;12.50;54.80
30865;DHT22;17574;49.418;11.038;2023-04-01T17:21:49;14.90;20.10
30865;DHT22;17574;49.418;11.038;2023-04-01T17:26:48;13.90;8.40
30865;DHT22;17574;49.418;11.038;2023-04-01T17:34:42;12.30;21.00
30865;DHT22;17574;49.418;11.038;2023-04-01T17:37:32;12.00;22.90
30865;DHT22;17574;49.418;11.038;2023-04-01T17:42:39;11.60;28.30
30865;DHT22;17574;49.418;11.038;2023-04-01T17:50:27;11.30;31.20
30865;DHT22;17574;49.418;11.038;2023-04-01T17:53:07;11.30;32.20
30865;DHT22;17574;49.418;11.038;2023-04-01T17:58:22;11.20;33.90
30865;DHT22;17574;49.418;11.038;2023-04-01T18:06:17;11.00;35.50
30865;DHT22;17574;49.418;11.038;2023-04-01T18:08:57;11.00;35.80
30865;DHT22;17574;49.418;11.038;2023-04-01T18:24:44;10.90;39.70
30865;DHT22;17574;49.418;11.038;2023-04-01T18:27:19;10.90;39.70
30865;DHT22;17574;49.418;11.038;2023-04-01T18:29:53;10.80;39.60
30865;DHT22;17574;49.418;11.038;2023-04-01T18:40:32;13.50;51.20
30865;DHT22;17574;49.418;11.038;2023-04-01T18:43:19;14.40;26.40
30865;DHT22;17574;49.418;11.038;2023-04-01T18:45:50;14.90;14.40
30865;DHT22;17574;49.418;11.038;2023-04-01T18:51:10;15.20;8.80
30865;DHT22;17574;49.418;11.038;2023-04-01T18:53:45;15.20;7.20
30865;DHT22;17574;49.418;11.038;2023-04-01T18:56:15;15.30;5.90
30865;DHT22;17574;49.418;11.038;2023-04-01T18:58:49;15.40;6.10
30865;DHT22;17574;49.418;11.038;2023-04-01T19:06:29;13.20;12.30
30865;DHT22;17574;49.418;11.038;2023-04-01T19:09:00;12.70;16.60
30865;DHT22;17574;49.418;11.038;2023-04-01T19:11:48;12.40;21.00
30865;DHT22;17574;49.418;11.038;2023-04-01T19:14:19;12.00;23.80
30865;DHT22;17574;49.418;11.038;2023-04-01T19:19:38;11.60;29.40
30865;DHT22;17574;49.418;11.038;2023-04-01T19:22:13;11.40;30.70
30865;DHT22;17574;49.418;11.038;2023-04-01T19:37:57;11.00;41.50
30865;DHT22;17574;49.418;11.038;2023-04-01T19:40:33;11.00;42.10
30865;DHT22;17574;49.418;11.038;2023-04-01T19:43:03;10.90;43.00
30865;DHT22;17574;49.418;11.038;2023-04-01T19:45:40;10.90;43.80
30865;DHT22;17574;49.418;11.038;2023-04-01T19:48:16;10.80;43.80
30865;DHT22;17574;49.418;11.038;2023-04-01T19:50:52;10.90;42.80
30865;DHT22;17574;49.418;11.038;2023-04-01T19:53:25;10.80;43.70
30865;DHT22;17574;49.418;11.038;2023-04-01T19:56:03;10.80;43.00
30865;DHT22;17574;49.418;11.038;2023-04-01T19:58:33;10.80;43.90
30865;DHT22;17574;49.418;11.038;2023-04-01T20:01:01;10.80;43.40
30865;DHT22;17574;49.418;11.038;2023-04-01T20:06:36;10.70;44.20
30865;DHT22;17574;49.418;11.038;2023-04-01T20:12:08;10.70;45.00
30865;DHT22;17574;49.418;11.038;2023-04-01T20:14:49;10.70;44.20
30865;DHT22;17574;49.418;11.038;2023-04-01T20:20:03;10.70;44.70
30865;DHT22;17574;49.418;11.038;2023-04-01T20:27:45;10.70;43.70
30865;DHT22;17574;49.418;11.038;2023-04-01T20:32:50;10.60;43.60
30865;DHT22;17574;49.418;11.038;2023-04-01T20:40:40;10.60;44.90
30865;DHT22;17574;49.418;11.038;2023-04-01T20:45:56;10.60;46.70
30865;DHT22;17574;49.418;11.038;2023-04-01T20:48:30;10.50;49.20
30865;DHT22;17574;49.418;11.038;2023-04-01T20:51:04;10.50;50.20
30865;DHT22;17574;49.418;11.038;2023-04-01T20:59:08;10.50;50.20
30865;DHT22;17574;49.418;11.038;2023-04-01T21:01:44;10.40;52.50
30865;DHT22;17574;49.418;11.038;2023-04-01T21:06:56;10.40;53.30
30865;DHT22;17574;49.418;11.038;2023-04-01T21:12:28;10.30;55.30
30865;DHT22;17574;49.418;11.038;2023-04-01T21:15:03;10.30;55.70
30865;DHT22;17574;49.418;11.038;2023-04-01T21:22:58;10.30;56.90
30865;DHT22;17574;49.418;11.038;2023-04-01T21:25:28;10.30;57.30
30865;DHT22;17574;49.418;11.038;2023-04-01T21:30:40;10.30;57.70
30865;DHT22;17574;49.418;11.038;2023-04-01T21:33:24;10.20;58.30
30865;DHT22;17574;49.418;11.038;2023-04-01T21:51:41;10.30;55.20
30865;DHT22;17574;49.418;11.038;2023-04-01T21:54:24;10.20;54.70
30865;DHT22;17574;49.418;11.038;2023-04-01T21:57:08;10.30;53.70
30865;DHT22;17574;49.418;11.038;2023-04-01T22:07:36;10.30;52.50
30865;DHT22;17574;49.418;11.038;2023-04-01T22:12:42;10.20;52.20
30865;DHT22;17574;49.418;11.038;2023-04-01T22:17:45;10.20;52.10
30865;DHT22;17574;49.418;11.038;2023-04-01T22:25:56;10.20;52.90
30865;DHT22;17574;49.418;11.038;2023-04-01T22:28:27;10.20;52.30
30865;DHT22;17574;49.418;11.038;2023-04-01T22:30:59;10.20;51.80
30865;DHT22;17574;49.418;11.038;2023-04-01T22:43:57;10.20;50.80
30865;DHT22;17574;49.418;11.038;2023-04-01T22:46:43;10.20;50.70
30865;DHT22;17574;49.418;11.038;2023-04-01T22:49:22;10.20;49.90
30865;DHT22;17574;49.418;11.038;2023-04-01T22:54:25;10.20;50.50
30865;DHT22;17574;49.418;11.038;2023-04-01T22:56:57;10.20;51.40
30865;DHT22;17574;49.418;11.038;2023-04-01T22:59:30;10.20;50.50
30865;DHT22;17574;49.418;11.038;2023-04-01T23:01:59;10.20;51.80
30865;DHT22;17574;49.418;11.038;2023-04-01T23:04:37;10.20;51.80
30865;DHT22;17574;49.418;11.038;2023-04-01T23:07:14;10.20;51.60
30865;DHT22;17574;49.418;11.038;2023-04-01T23:09:46;10.20;53.50
30865;DHT22;17574;49.418;11.038;2023-04-01T23:12:14;10.20;53.10
30865;DHT22;17574;49.418;11.038;2023-04-01T23:14:51;10.20;53.50
30865;DHT22;17574;49.418;11.038;2023-04-01T23:19:54;10.20;55.10
30865;DHT22;17574;49.418;11.038;2023-04-01T23:22:38;10.20;55.50
30865;DHT22;17574;49.418;11.038;2023-04-01T23:25:27;10.10;56.70
30865;DHT22;17574;49.418;11.038;2023-04-01T23:28:00;10.10;57.80
30865;DHT22;17574;49.418;11.038;2023-04-01T23:38:34;10.00;60.10
30865;DHT22;17574;49.418;11.038;2023-04-01T23:41:01;10.00;60.10
30865;DHT22;17574;49.418;11.038;2023-04-01T23:43:32;10.00;60.10
30865;DHT22;17574;49.418;11.038;2023-04-01T23:46:00;10.00;61.10
30865;DHT22;17574;49.418;11.038;2023-04-01T23:48:31;10.20;61.00
30865;DHT22;17574;49.418;11.038;2023-04-01T23:50:58;10.00;62.40
30865;DHT22;17574;49.418;11.038;2023-04-01T23:53:26;10.00;63.40
30865;DHT22;17574;49.418;11.038;2023-04-01T23:55:54;10.00;63.60
30865;DHT22;17574;49.418;11.038;2023-04-01T23:58:22;9.90;64.80
